sensor_id;sensor_type;location;lat;lon;timestamp;P1;durP1;ratioP1;P2;durP2;ratioP2
52102;SDS011;38101;53.126;6.878;2023-03-21T00:01:50;22.27;;;14.07;;
52102;SDS011;38101;53.126;6.878;2023-03-21T00:04:16;19.98;;;13.95;;
52102;SDS011;38101;53.126;6.878;2023-03-21T00:06:42;21.58;;;15.02;;
52102;SDS011;38101;53.126;6.878;2023-03-21T00:09:07;20.27;;;14.57;;
52102;SDS011;38101;53.126;6.878;2023-03-21T00:11:33;19.48;;;14.13;;
52102;SDS011;38101;53.126;6.878;2023-03-21T00:13:59;18.27;;;12.65;;
52102;SDS011;38101;53.126;6.878;2023-03-21T00:16:26;17.20;;;11.82;;
52102;SDS011;38101;53.126;6.878;2023-03-21T00:18:54;18.50;;;12.80;;
52102;SDS011;38101;53.126;6.878;2023-03-21T00:21:22;19.23;;;12.93;;
52102;SDS011;38101;53.126;6.878;2023-03-21T00:23:52;17.42;;;12.60;;
52102;SDS011;38101;53.126;6.878;2023-03-21T00:26:19;17.67;;;11.75;;
52102;SDS011;38101;53.126;6.878;2023-03-21T00:28:46;17.02;;;12.00;;
52102;SDS011;38101;53.126;6.878;2023-03-21T00:31:12;16.58;;;12.18;;
52102;SDS011;38101;53.126;6.878;2023-03-21T00:33:38;16.60;;;11.45;;
52102;SDS011;38101;53.126;6.878;2023-03-21T00:36:05;17.13;;;12.25;;
52102;SDS011;38101;53.126;6.878;2023-03-21T00:38:31;18.17;;;12.20;;
52102;SDS011;38101;53.126;6.878;2023-03-21T00:40:58;16.15;;;11.57;;
52102;SDS011;38101;53.126;6.878;2023-03-21T00:43:24;17.70;;;12.48;;
52102;SDS011;38101;53.126;6.878;2023-03-21T00:45:54;16.90;;;11.68;;
52102;SDS011;38101;53.126;6.878;2023-03-21T00:48:22;17.52;;;11.32;;
52102;SDS011;38101;53.126;6.878;2023-03-21T00:50:49;18.67;;;12.43;;
52102;SDS011;38101;53.126;6.878;2023-03-21T00:53:16;15.63;;;10.70;;
52102;SDS011;38101;53.126;6.878;2023-03-21T00:55:42;16.02;;;10.70;;
52102;SDS011;38101;53.126;6.878;2023-03-21T00:58:08;15.15;;;10.40;;
52102;SDS011;38101;53.126;6.878;2023-03-21T01:00:34;14.57;;;10.38;;
52102;SDS011;38101;53.126;6.878;2023-03-21T01:03:04;15.35;;;10.05;;
52102;SDS011;38101;53.126;6.878;2023-03-21T01:05:38;15.93;;;10.43;;
52102;SDS011;38101;53.126;6.878;2023-03-21T01:08:24;18.08;;;11.30;;
52102;SDS011;38101;53.126;6.878;2023-03-21T01:10:52;18.38;;;11.38;;
52102;SDS011;38101;53.126;6.878;2023-03-21T01:13:19;18.02;;;11.45;;
52102;SDS011;38101;53.126;6.878;2023-03-21T01:15:47;17.45;;;11.45;;
52102;SDS011;38101;53.126;6.878;2023-03-21T01:18:16;23.90;;;14.10;;
52102;SDS011;38101;53.126;6.878;2023-03-21T01:20:44;26.02;;;14.80;;
52102;SDS011;38101;53.126;6.878;2023-03-21T01:23:11;25.45;;;13.93;;
52102;SDS011;38101;53.126;6.878;2023-03-21T01:25:37;26.55;;;14.88;;
52102;SDS011;38101;53.126;6.878;2023-03-21T01:28:03;27.67;;;16.27;;
52102;SDS011;38101;53.126;6.878;2023-03-21T01:30:28;29.17;;;16.40;;
52102;SDS011;38101;53.126;6.878;2023-03-21T01:32:54;30.65;;;16.75;;
52102;SDS011;38101;53.126;6.878;2023-03-21T01:35:20;35.05;;;17.85;;
52102;SDS011;38101;53.126;6.878;2023-03-21T01:37:45;30.80;;;17.20;;
52102;SDS011;38101;53.126;6.878;2023-03-21T01:40:30;33.83;;;18.17;;
52102;SDS011;38101;53.126;6.878;2023-03-21T01:42:56;32.35;;;18.40;;
52102;SDS011;38101;53.126;6.878;2023-03-21T01:48:45;31.33;;;16.83;;
52102;SDS011;38101;53.126;6.878;2023-03-21T01:51:14;29.52;;;16.63;;
52102;SDS011;38101;53.126;6.878;2023-03-21T01:53:41;30.95;;;17.23;;
52102;SDS011;38101;53.126;6.878;2023-03-21T01:56:15;26.25;;;16.35;;
52102;SDS011;38101;53.126;6.878;2023-03-21T01:58:44;28.55;;;16.88;;
52102;SDS011;38101;53.126;6.878;2023-03-21T02:01:10;27.35;;;16.70;;
52102;SDS011;38101;53.126;6.878;2023-03-21T02:03:39;28.83;;;15.60;;
52102;SDS011;38101;53.126;6.878;2023-03-21T02:06:14;28.52;;;16.30;;
52102;SDS011;38101;53.126;6.878;2023-03-21T02:09:03;28.35;;;16.27;;
52102;SDS011;38101;53.126;6.878;2023-03-21T02:11:33;29.42;;;17.42;;
52102;SDS011;38101;53.126;6.878;2023-03-21T02:14:00;28.45;;;16.90;;
52102;SDS011;38101;53.126;6.878;2023-03-21T02:24:28;28.77;;;16.80;;
52102;SDS011;38101;53.126;6.878;2023-03-21T02:27:24;28.98;;;16.88;;
52102;SDS011;38101;53.126;6.878;2023-03-21T02:29:58;28.58;;;17.10;;
52102;SDS011;38101;53.126;6.878;2023-03-21T02:38:34;23.35;;;15.40;;
52102;SDS011;38101;53.126;6.878;2023-03-21T02:41:22;23.30;;;15.32;;
52102;SDS011;38101;53.126;6.878;2023-03-21T02:43:55;22.60;;;15.13;;
52102;SDS011;38101;53.126;6.878;2023-03-21T02:46:48;24.25;;;14.98;;
52102;SDS011;38101;53.126;6.878;2023-03-21T02:49:39;22.88;;;15.02;;
52102;SDS011;38101;53.126;6.878;2023-03-21T02:52:30;21.90;;;14.20;;
52102;SDS011;38101;53.126;6.878;2023-03-21T02:55:00;21.90;;;14.55;;
52102;SDS011;38101;53.126;6.878;2023-03-21T02:57:29;22.27;;;13.80;;
52102;SDS011;38101;53.126;6.878;2023-03-21T02:59:56;22.33;;;13.80;;
52102;SDS011;38101;53.126;6.878;2023-03-21T03:02:24;22.25;;;13.88;;
52102;SDS011;38101;53.126;6.878;2023-03-21T03:04:52;20.83;;;13.02;;
52102;SDS011;38101;53.126;6.878;2023-03-21T03:07:20;22.08;;;13.52;;
52102;SDS011;38101;53.126;6.878;2023-03-21T03:10:14;20.48;;;13.52;;
52102;SDS011;38101;53.126;6.878;2023-03-21T03:24:16;21.70;;;13.60;;
52102;SDS011;38101;53.126;6.878;2023-03-21T03:29:34;20.75;;;12.45;;
52102;SDS011;38101;53.126;6.878;2023-03-21T03:34:36;21.08;;;12.90;;
52102;SDS011;38101;53.126;6.878;2023-03-21T03:37:09;21.45;;;12.90;;
52102;SDS011;38101;53.126;6.878;2023-03-21T03:40:01;20.58;;;12.80;;
52102;SDS011;38101;53.126;6.878;2023-03-21T03:42:32;20.70;;;12.40;;
52102;SDS011;38101;53.126;6.878;2023-03-21T03:45:00;18.38;;;11.50;;
52102;SDS011;38101;53.126;6.878;2023-03-21T03:47:38;17.20;;;11.25;;
52102;SDS011;38101;53.126;6.878;2023-03-21T03:50:13;17.75;;;11.55;;
52102;SDS011;38101;53.126;6.878;2023-03-21T03:52:52;19.30;;;12.73;;
52102;SDS011;38101;53.126;6.878;2023-03-21T03:55:23;17.33;;;11.63;;
52102;SDS011;38101;53.126;6.878;2023-03-21T03:57:51;16.35;;;11.35;;
52102;SDS011;38101;53.126;6.878;2023-03-21T04:00:18;18.00;;;11.63;;
52102;SDS011;38101;53.126;6.878;2023-03-21T04:02:44;19.13;;;12.27;;
52102;SDS011;38101;53.126;6.878;2023-03-21T04:05:11;18.50;;;11.45;;
52102;SDS011;38101;53.126;6.878;2023-03-21T04:07:37;17.30;;;11.20;;
52102;SDS011;38101;53.126;6.878;2023-03-21T04:10:03;18.60;;;11.68;;
52102;SDS011;38101;53.126;6.878;2023-03-21T04:12:29;17.90;;;11.52;;
52102;SDS011;38101;53.126;6.878;2023-03-21T04:14:55;16.35;;;11.82;;
52102;SDS011;38101;53.126;6.878;2023-03-21T04:17:20;18.55;;;11.88;;
52102;SDS011;38101;53.126;6.878;2023-03-21T04:19:46;18.50;;;12.00;;
52102;SDS011;38101;53.126;6.878;2023-03-21T04:22:12;18.83;;;12.27;;
52102;SDS011;38101;53.126;6.878;2023-03-21T04:24:38;18.50;;;12.40;;
52102;SDS011;38101;53.126;6.878;2023-03-21T04:27:04;18.23;;;11.73;;
52102;SDS011;38101;53.126;6.878;2023-03-21T04:29:31;18.90;;;12.55;;
52102;SDS011;38101;53.126;6.878;2023-03-21T04:31:57;20.40;;;12.43;;
52102;SDS011;38101;53.126;6.878;2023-03-21T04:34:23;20.45;;;13.50;;
52102;SDS011;38101;53.126;6.878;2023-03-21T04:36:54;19.98;;;12.82;;
52102;SDS011;38101;53.126;6.878;2023-03-21T04:39:20;21.13;;;13.00;;
52102;SDS011;38101;53.126;6.878;2023-03-21T04:41:46;19.73;;;12.32;;
52102;SDS011;38101;53.126;6.878;2023-03-21T04:44:13;17.85;;;11.20;;
52102;SDS011;38101;53.126;6.878;2023-03-21T04:46:40;17.40;;;12.00;;
52102;SDS011;38101;53.126;6.878;2023-03-21T04:49:07;17.73;;;11.15;;
52102;SDS011;38101;53.126;6.878;2023-03-21T04:51:33;17.42;;;10.85;;
52102;SDS011;38101;53.126;6.878;2023-03-21T04:53:59;17.67;;;11.15;;
52102;SDS011;38101;53.126;6.878;2023-03-21T04:56:25;20.17;;;11.00;;
52102;SDS011;38101;53.126;6.878;2023-03-21T04:58:57;16.88;;;11.05;;
52102;SDS011;38101;53.126;6.878;2023-03-21T05:01:29;15.68;;;9.80;;
52102;SDS011;38101;53.126;6.878;2023-03-21T05:03:58;15.32;;;10.40;;
52102;SDS011;38101;53.126;6.878;2023-03-21T05:06:25;13.38;;;9.13;;
52102;SDS011;38101;53.126;6.878;2023-03-21T05:08:52;14.13;;;9.38;;
52102;SDS011;38101;53.126;6.878;2023-03-21T05:11:21;15.68;;;9.65;;
52102;SDS011;38101;53.126;6.878;2023-03-21T05:13:46;16.23;;;9.90;;
52102;SDS011;38101;53.126;6.878;2023-03-21T05:16:13;15.75;;;10.18;;
52102;SDS011;38101;53.126;6.878;2023-03-21T05:18:38;14.35;;;9.05;;
52102;SDS011;38101;53.126;6.878;2023-03-21T05:21:04;14.60;;;9.38;;
52102;SDS011;38101;53.126;6.878;2023-03-21T05:23:34;14.23;;;9.02;;
52102;SDS011;38101;53.126;6.878;2023-03-21T05:26:06;15.20;;;9.52;;
52102;SDS011;38101;53.126;6.878;2023-03-21T05:28:33;16.83;;;10.25;;
52102;SDS011;38101;53.126;6.878;2023-03-21T05:31:04;15.15;;;9.88;;
52102;SDS011;38101;53.126;6.878;2023-03-21T05:33:30;13.70;;;9.40;;
52102;SDS011;38101;53.126;6.878;2023-03-21T05:35:56;16.40;;;10.32;;
52102;SDS011;38101;53.126;6.878;2023-03-21T05:38:22;16.33;;;10.23;;
52102;SDS011;38101;53.126;6.878;2023-03-21T05:40:49;14.45;;;9.77;;
52102;SDS011;38101;53.126;6.878;2023-03-21T05:43:15;15.70;;;10.27;;
52102;SDS011;38101;53.126;6.878;2023-03-21T05:45:41;15.32;;;10.30;;
52102;SDS011;38101;53.126;6.878;2023-03-21T05:48:07;16.85;;;10.98;;
52102;SDS011;38101;53.126;6.878;2023-03-21T05:50:33;16.83;;;11.25;;
52102;SDS011;38101;53.126;6.878;2023-03-21T05:52:59;15.82;;;10.45;;
52102;SDS011;38101;53.126;6.878;2023-03-21T05:55:25;15.50;;;8.98;;
52102;SDS011;38101;53.126;6.878;2023-03-21T05:57:50;16.27;;;10.77;;
52102;SDS011;38101;53.126;6.878;2023-03-21T06:00:17;16.13;;;10.77;;
52102;SDS011;38101;53.126;6.878;2023-03-21T06:02:45;16.35;;;10.57;;
52102;SDS011;38101;53.126;6.878;2023-03-21T06:05:11;15.25;;;10.10;;
52102;SDS011;38101;53.126;6.878;2023-03-21T06:07:37;16.05;;;10.75;;
52102;SDS011;38101;53.126;6.878;2023-03-21T06:10:04;16.17;;;11.02;;
52102;SDS011;38101;53.126;6.878;2023-03-21T06:12:30;14.63;;;10.57;;
52102;SDS011;38101;53.126;6.878;2023-03-21T06:14:56;16.05;;;11.45;;
52102;SDS011;38101;53.126;6.878;2023-03-21T06:17:22;15.32;;;11.02;;
52102;SDS011;38101;53.126;6.878;2023-03-21T06:19:47;15.45;;;11.18;;
52102;SDS011;38101;53.126;6.878;2023-03-21T06:22:13;15.65;;;10.15;;
52102;SDS011;38101;53.126;6.878;2023-03-21T06:24:38;16.83;;;11.35;;
52102;SDS011;38101;53.126;6.878;2023-03-21T06:27:04;16.67;;;11.35;;
52102;SDS011;38101;53.126;6.878;2023-03-21T06:29:30;15.20;;;10.88;;
52102;SDS011;38101;53.126;6.878;2023-03-21T06:31:56;16.15;;;11.43;;
52102;SDS011;38101;53.126;6.878;2023-03-21T06:34:22;16.33;;;10.98;;
52102;SDS011;38101;53.126;6.878;2023-03-21T06:36:47;15.25;;;11.13;;
52102;SDS011;38101;53.126;6.878;2023-03-21T06:39:13;14.52;;;10.93;;
52102;SDS011;38101;53.126;6.878;2023-03-21T06:41:40;16.13;;;11.75;;
52102;SDS011;38101;53.126;6.878;2023-03-21T06:44:05;14.82;;;10.80;;
52102;SDS011;38101;53.126;6.878;2023-03-21T06:46:31;14.40;;;10.95;;
52102;SDS011;38101;53.126;6.878;2023-03-21T06:48:57;16.83;;;11.70;;
52102;SDS011;38101;53.126;6.878;2023-03-21T06:51:23;15.05;;;10.77;;
52102;SDS011;38101;53.126;6.878;2023-03-21T06:53:48;15.63;;;11.10;;
52102;SDS011;38101;53.126;6.878;2023-03-21T06:56:14;14.73;;;11.30;;
52102;SDS011;38101;53.126;6.878;2023-03-21T06:58:40;16.45;;;11.55;;
52102;SDS011;38101;53.126;6.878;2023-03-21T07:01:06;14.95;;;11.48;;
52102;SDS011;38101;53.126;6.878;2023-03-21T07:03:32;15.77;;;11.68;;
52102;SDS011;38101;53.126;6.878;2023-03-21T07:06:02;15.40;;;11.48;;
52102;SDS011;38101;53.126;6.878;2023-03-21T07:08:29;16.15;;;11.57;;
52102;SDS011;38101;53.126;6.878;2023-03-21T07:10:55;17.98;;;11.52;;
52102;SDS011;38101;53.126;6.878;2023-03-21T07:13:24;17.58;;;11.25;;
52102;SDS011;38101;53.126;6.878;2023-03-21T07:15:51;15.55;;;11.32;;
52102;SDS011;38101;53.126;6.878;2023-03-21T07:18:18;14.63;;;11.15;;
52102;SDS011;38101;53.126;6.878;2023-03-21T07:20:47;15.88;;;11.73;;
52102;SDS011;38101;53.126;6.878;2023-03-21T07:23:18;15.95;;;11.98;;
52102;SDS011;38101;53.126;6.878;2023-03-21T07:25:46;15.60;;;11.60;;
52102;SDS011;38101;53.126;6.878;2023-03-21T07:28:13;15.13;;;11.27;;
52102;SDS011;38101;53.126;6.878;2023-03-21T07:30:39;14.73;;;10.63;;
52102;SDS011;38101;53.126;6.878;2023-03-21T07:33:05;15.45;;;10.50;;
52102;SDS011;38101;53.126;6.878;2023-03-21T07:35:31;14.60;;;10.65;;
52102;SDS011;38101;53.126;6.878;2023-03-21T07:37:58;14.80;;;10.80;;
52102;SDS011;38101;53.126;6.878;2023-03-21T07:40:24;14.98;;;10.63;;
52102;SDS011;38101;53.126;6.878;2023-03-21T07:42:49;14.02;;;10.27;;
52102;SDS011;38101;53.126;6.878;2023-03-21T07:45:15;15.02;;;10.95;;
52102;SDS011;38101;53.126;6.878;2023-03-21T07:47:46;13.82;;;10.35;;
52102;SDS011;38101;53.126;6.878;2023-03-21T07:50:12;16.00;;;11.18;;
52102;SDS011;38101;53.126;6.878;2023-03-21T07:52:38;13.32;;;9.95;;
52102;SDS011;38101;53.126;6.878;2023-03-21T07:55:04;13.88;;;10.20;;
52102;SDS011;38101;53.126;6.878;2023-03-21T07:57:30;13.68;;;9.88;;
52102;SDS011;38101;53.126;6.878;2023-03-21T07:59:56;12.43;;;9.40;;
52102;SDS011;38101;53.126;6.878;2023-03-21T08:02:22;13.27;;;9.40;;
52102;SDS011;38101;53.126;6.878;2023-03-21T08:04:48;12.98;;;8.57;;
52102;SDS011;38101;53.126;6.878;2023-03-21T08:07:14;11.88;;;8.80;;
52102;SDS011;38101;53.126;6.878;2023-03-21T08:09:41;11.13;;;7.80;;
52102;SDS011;38101;53.126;6.878;2023-03-21T08:12:07;11.43;;;8.23;;
52102;SDS011;38101;53.126;6.878;2023-03-21T08:14:33;10.77;;;7.75;;
52102;SDS011;38101;53.126;6.878;2023-03-21T08:17:01;10.35;;;6.90;;
52102;SDS011;38101;53.126;6.878;2023-03-21T08:19:27;9.70;;;7.00;;
52102;SDS011;38101;53.126;6.878;2023-03-21T08:21:53;9.82;;;7.30;;
52102;SDS011;38101;53.126;6.878;2023-03-21T08:24:19;9.05;;;6.05;;
52102;SDS011;38101;53.126;6.878;2023-03-21T08:26:45;7.90;;;6.32;;
52102;SDS011;38101;53.126;6.878;2023-03-21T08:29:12;8.82;;;6.38;;
52102;SDS011;38101;53.126;6.878;2023-03-21T08:31:38;10.02;;;6.22;;
52102;SDS011;38101;53.126;6.878;2023-03-21T08:34:05;9.65;;;6.70;;
52102;SDS011;38101;53.126;6.878;2023-03-21T08:36:31;9.15;;;6.10;;
52102;SDS011;38101;53.126;6.878;2023-03-21T08:39:01;9.30;;;6.35;;
52102;SDS011;38101;53.126;6.878;2023-03-21T08:41:44;9.43;;;6.50;;
52102;SDS011;38101;53.126;6.878;2023-03-21T08:44:10;9.52;;;6.20;;
52102;SDS011;38101;53.126;6.878;2023-03-21T08:46:36;9.27;;;6.57;;
52102;SDS011;38101;53.126;6.878;2023-03-21T08:49:02;8.95;;;6.65;;
52102;SDS011;38101;53.126;6.878;2023-03-21T08:51:28;9.32;;;7.45;;
52102;SDS011;38101;53.126;6.878;2023-03-21T08:53:53;9.23;;;6.53;;
52102;SDS011;38101;53.126;6.878;2023-03-21T08:56:19;9.82;;;7.38;;
52102;SDS011;38101;53.126;6.878;2023-03-21T08:58:45;9.82;;;7.35;;
52102;SDS011;38101;53.126;6.878;2023-03-21T09:01:11;9.85;;;7.15;;
52102;SDS011;38101;53.126;6.878;2023-03-21T09:03:40;8.18;;;6.55;;
52102;SDS011;38101;53.126;6.878;2023-03-21T09:06:06;9.35;;;6.85;;
52102;SDS011;38101;53.126;6.878;2023-03-21T09:08:36;10.38;;;7.25;;
52102;SDS011;38101;53.126;6.878;2023-03-21T09:11:02;8.00;;;6.60;;
52102;SDS011;38101;53.126;6.878;2023-03-21T09:13:28;8.50;;;6.65;;
52102;SDS011;38101;53.126;6.878;2023-03-21T09:15:54;9.30;;;7.07;;
52102;SDS011;38101;53.126;6.878;2023-03-21T09:18:22;10.45;;;7.60;;
52102;SDS011;38101;53.126;6.878;2023-03-21T09:21:08;9.02;;;7.63;;
52102;SDS011;38101;53.126;6.878;2023-03-21T09:23:39;10.75;;;6.85;;
52102;SDS011;38101;53.126;6.878;2023-03-21T09:26:05;9.93;;;7.20;;
52102;SDS011;38101;53.126;6.878;2023-03-21T09:28:33;9.20;;;6.95;;
52102;SDS011;38101;53.126;6.878;2023-03-21T09:31:01;10.95;;;7.57;;
52102;SDS011;38101;53.126;6.878;2023-03-21T09:33:28;14.48;;;7.75;;
52102;SDS011;38101;53.126;6.878;2023-03-21T09:35:54;11.05;;;7.90;;
52102;SDS011;38101;53.126;6.878;2023-03-21T09:38:21;11.98;;;8.60;;
52102;SDS011;38101;53.126;6.878;2023-03-21T09:49:24;11.07;;;8.52;;
52102;SDS011;38101;53.126;6.878;2023-03-21T09:51:55;13.05;;;8.35;;
52102;SDS011;38101;53.126;6.878;2023-03-21T09:54:29;12.20;;;8.95;;
52102;SDS011;38101;53.126;6.878;2023-03-21T09:57:03;13.82;;;9.15;;
52102;SDS011;38101;53.126;6.878;2023-03-21T09:59:39;13.25;;;9.07;;
52102;SDS011;38101;53.126;6.878;2023-03-21T10:05:01;16.17;;;10.13;;
52102;SDS011;38101;53.126;6.878;2023-03-21T10:07:35;15.80;;;10.35;;
52102;SDS011;38101;53.126;6.878;2023-03-21T10:10:19;15.45;;;10.93;;
52102;SDS011;38101;53.126;6.878;2023-03-21T10:12:53;17.05;;;11.52;;
52102;SDS011;38101;53.126;6.878;2023-03-21T10:15:21;14.82;;;10.85;;
52102;SDS011;38101;53.126;6.878;2023-03-21T10:17:54;16.13;;;11.85;;
52102;SDS011;38101;53.126;6.878;2023-03-21T10:20:31;17.85;;;11.27;;
52102;SDS011;38101;53.126;6.878;2023-03-21T10:23:00;17.52;;;12.43;;
52102;SDS011;38101;53.126;6.878;2023-03-21T10:25:35;17.73;;;12.43;;
52102;SDS011;38101;53.126;6.878;2023-03-21T10:28:04;18.08;;;13.10;;
52102;SDS011;38101;53.126;6.878;2023-03-21T10:30:37;19.67;;;13.07;;
52102;SDS011;38101;53.126;6.878;2023-03-21T10:33:17;18.55;;;13.20;;
52102;SDS011;38101;53.126;6.878;2023-03-21T10:35:54;18.80;;;14.20;;
52102;SDS011;38101;53.126;6.878;2023-03-21T10:38:24;19.45;;;13.55;;
52102;SDS011;38101;53.126;6.878;2023-03-21T10:40:51;22.20;;;14.68;;
52102;SDS011;38101;53.126;6.878;2023-03-21T10:43:18;20.90;;;14.23;;
52102;SDS011;38101;53.126;6.878;2023-03-21T10:45:55;19.40;;;13.50;;
52102;SDS011;38101;53.126;6.878;2023-03-21T10:48:22;20.02;;;14.02;;
52102;SDS011;38101;53.126;6.878;2023-03-21T10:50:53;18.10;;;14.38;;
52102;SDS011;38101;53.126;6.878;2023-03-21T10:53:21;23.98;;;15.38;;
52102;SDS011;38101;53.126;6.878;2023-03-21T10:55:53;19.13;;;13.55;;
52102;SDS011;38101;53.126;6.878;2023-03-21T10:58:24;18.42;;;12.80;;
52102;SDS011;38101;53.126;6.878;2023-03-21T11:00:57;19.70;;;13.95;;
52102;SDS011;38101;53.126;6.878;2023-03-21T11:03:28;17.67;;;12.75;;
52102;SDS011;38101;53.126;6.878;2023-03-21T11:08:55;16.38;;;12.15;;
52102;SDS011;38101;53.126;6.878;2023-03-21T11:11:26;20.17;;;12.57;;
52102;SDS011;38101;53.126;6.878;2023-03-21T11:14:01;18.10;;;12.32;;
52102;SDS011;38101;53.126;6.878;2023-03-21T11:16:35;17.77;;;12.20;;
52102;SDS011;38101;53.126;6.878;2023-03-21T11:21:42;17.75;;;11.80;;
52102;SDS011;38101;53.126;6.878;2023-03-21T11:24:12;18.02;;;12.00;;
52102;SDS011;38101;53.126;6.878;2023-03-21T11:26:42;19.77;;;12.95;;
52102;SDS011;38101;53.126;6.878;2023-03-21T11:29:19;14.13;;;10.63;;
52102;SDS011;38101;53.126;6.878;2023-03-21T11:31:50;17.83;;;11.32;;
52102;SDS011;38101;53.126;6.878;2023-03-21T11:34:23;16.83;;;11.38;;
52102;SDS011;38101;53.126;6.878;2023-03-21T11:36:57;14.98;;;10.45;;
52102;SDS011;38101;53.126;6.878;2023-03-21T11:39:35;13.40;;;9.80;;
52102;SDS011;38101;53.126;6.878;2023-03-21T11:42:04;14.48;;;10.98;;
52102;SDS011;38101;53.126;6.878;2023-03-21T11:44:48;15.55;;;10.98;;
52102;SDS011;38101;53.126;6.878;2023-03-21T11:47:21;17.77;;;11.13;;
52102;SDS011;38101;53.126;6.878;2023-03-21T11:49:47;15.23;;;10.57;;
52102;SDS011;38101;53.126;6.878;2023-03-21T11:52:28;15.60;;;10.80;;
52102;SDS011;38101;53.126;6.878;2023-03-21T12:00:23;14.82;;;10.82;;
52102;SDS011;38101;53.126;6.878;2023-03-21T12:05:33;15.52;;;10.75;;
52102;SDS011;38101;53.126;6.878;2023-03-21T12:11:19;14.85;;;10.75;;
52102;SDS011;38101;53.126;6.878;2023-03-21T12:14:00;14.88;;;10.98;;
52102;SDS011;38101;53.126;6.878;2023-03-21T12:19:17;12.90;;;9.50;;
52102;SDS011;38101;53.126;6.878;2023-03-21T12:24:27;13.43;;;10.90;;
52102;SDS011;38101;53.126;6.878;2023-03-21T12:32:44;18.27;;;9.88;;
52102;SDS011;38101;53.126;6.878;2023-03-21T12:35:58;13.45;;;10.07;;
52102;SDS011;38101;53.126;6.878;2023-03-21T12:38:31;14.93;;;10.25;;
52102;SDS011;38101;53.126;6.878;2023-03-21T12:49:04;13.77;;;9.10;;
52102;SDS011;38101;53.126;6.878;2023-03-21T12:51:35;13.63;;;9.40;;
52102;SDS011;38101;53.126;6.878;2023-03-21T12:54:23;12.40;;;8.40;;
52102;SDS011;38101;53.126;6.878;2023-03-21T12:59:47;12.57;;;8.30;;
52102;SDS011;38101;53.126;6.878;2023-03-21T13:02:33;13.32;;;8.68;;
52102;SDS011;38101;53.126;6.878;2023-03-21T13:07:43;14.63;;;8.85;;
52102;SDS011;38101;53.126;6.878;2023-03-21T13:10:14;14.73;;;8.68;;
52102;SDS011;38101;53.126;6.878;2023-03-21T13:15:47;15.88;;;8.35;;
52102;SDS011;38101;53.126;6.878;2023-03-21T13:20:56;11.93;;;8.15;;
52102;SDS011;38101;53.126;6.878;2023-03-21T13:23:32;14.00;;;7.90;;
52102;SDS011;38101;53.126;6.878;2023-03-21T13:26:00;10.43;;;8.13;;
52102;SDS011;38101;53.126;6.878;2023-03-21T13:28:28;15.77;;;8.38;;
52102;SDS011;38101;53.126;6.878;2023-03-21T13:33:44;12.48;;;8.23;;
52102;SDS011;38101;53.126;6.878;2023-03-21T13:36:12;11.45;;;8.18;;
52102;SDS011;38101;53.126;6.878;2023-03-21T13:38:40;13.27;;;7.93;;
52102;SDS011;38101;53.126;6.878;2023-03-21T13:41:20;12.90;;;8.48;;
52102;SDS011;38101;53.126;6.878;2023-03-21T13:51:41;11.10;;;7.88;;
52102;SDS011;38101;53.126;6.878;2023-03-21T14:04:23;13.13;;;8.27;;
52102;SDS011;38101;53.126;6.878;2023-03-21T14:09:28;12.98;;;8.15;;
52102;SDS011;38101;53.126;6.878;2023-03-21T14:12:03;10.05;;;7.57;;
52102;SDS011;38101;53.126;6.878;2023-03-21T14:14:45;11.15;;;8.10;;
52102;SDS011;38101;53.126;6.878;2023-03-21T14:17:27;10.25;;;7.82;;
52102;SDS011;38101;53.126;6.878;2023-03-21T14:20:05;10.65;;;7.40;;
52102;SDS011;38101;53.126;6.878;2023-03-21T14:22:39;10.80;;;7.43;;
52102;SDS011;38101;53.126;6.878;2023-03-21T14:25:06;11.73;;;8.38;;
52102;SDS011;38101;53.126;6.878;2023-03-21T14:27:36;11.02;;;8.02;;
52102;SDS011;38101;53.126;6.878;2023-03-21T14:30:03;11.70;;;7.90;;
52102;SDS011;38101;53.126;6.878;2023-03-21T14:32:30;11.68;;;7.95;;
52102;SDS011;38101;53.126;6.878;2023-03-21T14:34:56;13.52;;;8.30;;
52102;SDS011;38101;53.126;6.878;2023-03-21T14:37:44;11.45;;;7.80;;
52102;SDS011;38101;53.126;6.878;2023-03-21T14:40:18;10.98;;;7.78;;
52102;SDS011;38101;53.126;6.878;2023-03-21T14:42:49;12.52;;;8.07;;
52102;SDS011;38101;53.126;6.878;2023-03-21T14:45:17;11.15;;;8.15;;
52102;SDS011;38101;53.126;6.878;2023-03-21T14:50:38;11.98;;;8.02;;
52102;SDS011;38101;53.126;6.878;2023-03-21T14:53:18;12.82;;;8.00;;
52102;SDS011;38101;53.126;6.878;2023-03-21T14:55:59;12.95;;;8.10;;
52102;SDS011;38101;53.126;6.878;2023-03-21T14:58:36;10.88;;;7.68;;
52102;SDS011;38101;53.126;6.878;2023-03-21T15:01:04;12.18;;;8.27;;
52102;SDS011;38101;53.126;6.878;2023-03-21T15:03:32;10.48;;;7.97;;
52102;SDS011;38101;53.126;6.878;2023-03-21T15:05:58;11.73;;;8.38;;
52102;SDS011;38101;53.126;6.878;2023-03-21T15:08:25;12.02;;;7.97;;
52102;SDS011;38101;53.126;6.878;2023-03-21T15:10:57;14.77;;;8.82;;
52102;SDS011;38101;53.126;6.878;2023-03-21T15:13:27;13.02;;;8.23;;
52102;SDS011;38101;53.126;6.878;2023-03-21T15:16:01;11.93;;;7.90;;
52102;SDS011;38101;53.126;6.878;2023-03-21T15:18:32;12.95;;;7.85;;
52102;SDS011;38101;53.126;6.878;2023-03-21T15:21:01;11.13;;;8.07;;
52102;SDS011;38101;53.126;6.878;2023-03-21T15:23:31;14.10;;;8.40;;
52102;SDS011;38101;53.126;6.878;2023-03-21T15:26:01;10.10;;;8.02;;
52102;SDS011;38101;53.126;6.878;2023-03-21T15:28:28;10.07;;;7.65;;
52102;SDS011;38101;53.126;6.878;2023-03-21T15:30:54;12.85;;;8.57;;
52102;SDS011;38101;53.126;6.878;2023-03-21T15:33:22;13.77;;;8.68;;
52102;SDS011;38101;53.126;6.878;2023-03-21T15:35:52;11.90;;;8.27;;
52102;SDS011;38101;53.126;6.878;2023-03-21T15:38:21;10.45;;;8.05;;
52102;SDS011;38101;53.126;6.878;2023-03-21T15:40:52;14.18;;;8.00;;
52102;SDS011;38101;53.126;6.878;2023-03-21T15:43:43;12.05;;;8.00;;
52102;SDS011;38101;53.126;6.878;2023-03-21T15:46:16;10.60;;;8.10;;
52102;SDS011;38101;53.126;6.878;2023-03-21T15:49:05;10.48;;;7.45;;
52102;SDS011;38101;53.126;6.878;2023-03-21T15:51:34;12.48;;;8.82;;
52102;SDS011;38101;53.126;6.878;2023-03-21T15:54:01;12.43;;;8.57;;
52102;SDS011;38101;53.126;6.878;2023-03-21T15:56:27;14.07;;;9.25;;
52102;SDS011;38101;53.126;6.878;2023-03-21T15:58:59;13.18;;;8.77;;
52102;SDS011;38101;53.126;6.878;2023-03-21T16:01:31;12.45;;;8.52;;
52102;SDS011;38101;53.126;6.878;2023-03-21T16:04:11;11.35;;;7.95;;
52102;SDS011;38101;53.126;6.878;2023-03-21T16:06:41;14.23;;;8.60;;
52102;SDS011;38101;53.126;6.878;2023-03-21T16:09:40;12.57;;;9.00;;
52102;SDS011;38101;53.126;6.878;2023-03-21T16:12:11;14.27;;;8.48;;
52102;SDS011;38101;53.126;6.878;2023-03-21T16:14:39;11.82;;;8.55;;
52102;SDS011;38101;53.126;6.878;2023-03-21T16:17:15;11.60;;;7.88;;
52102;SDS011;38101;53.126;6.878;2023-03-21T16:19:52;11.32;;;9.18;;
52102;SDS011;38101;53.126;6.878;2023-03-21T16:22:18;13.50;;;9.25;;
52102;SDS011;38101;53.126;6.878;2023-03-21T16:24:45;12.85;;;8.85;;
52102;SDS011;38101;53.126;6.878;2023-03-21T16:27:11;12.77;;;8.60;;
52102;SDS011;38101;53.126;6.878;2023-03-21T16:29:37;13.52;;;9.13;;
52102;SDS011;38101;53.126;6.878;2023-03-21T16:32:03;10.80;;;8.90;;
52102;SDS011;38101;53.126;6.878;2023-03-21T16:34:30;12.95;;;8.60;;
52102;SDS011;38101;53.126;6.878;2023-03-21T16:36:56;15.30;;;9.00;;
52102;SDS011;38101;53.126;6.878;2023-03-21T16:39:23;12.52;;;8.68;;
52102;SDS011;38101;53.126;6.878;2023-03-21T16:41:51;13.00;;;8.57;;
52102;SDS011;38101;53.126;6.878;2023-03-21T16:44:17;13.15;;;9.35;;